Time;durP1;ratioP1;P1;durP2;ratioP2;P2;SDS_P1;SDS_P2;PMS_P1;PMS_P2;Temp;Humidity;BMP_temperature;BMP_pressure;BME280_temperature;BME280_humidity;BME280_pressure;Samples;Min_cycle;Max_cycle;Signal;HPM_P1;HPM_P2
2021/07/14 04:53:52;;;;;;;29.15;21.48;;;;;;;22.15;76.36;99309.06;4984925;28;106358;-75
2021/07/14 04:56:18;;;;;;;24.85;21.35;;;;;;;22.25;76.54;99302.84;4988815;28;107143;-70
2021/07/14 04:58:47;;;;;;;24.85;21.33;;;;;;;22.33;76.67;99297.97;4983133;28;106697;-74
2021/07/14 05:01:14;;;;;;;26.48;22.10;;;;;;;22.40;76.57;99291.19;4983025;28;105903;-73
2021/07/14 05:03:41;;;;;;;25.25;20.95;;;;;;;22.51;76.91;99293.94;4984388;28;106026;-73
2021/07/14 05:06:06;;;;;;;25.10;20.30;;;;;;;22.62;76.80;99290.97;4984907;28;105926;-73
2021/07/14 05:08:31;;;;;;;24.80;20.67;;;;;;;22.72;76.54;99294.72;4984728;28;106917;-72
2021/07/14 05:10:57;;;;;;;25.55;21.02;;;;;;;22.80;76.74;99302.34;4984312;28;106062;-74
2021/07/14 05:13:22;;;;;;;28.30;21.05;;;;;;;22.89;76.45;99311.56;4984075;28;106131;-69
2021/07/14 05:15:47;;;;;;;22.83;20.42;;;;;;;22.98;76.31;99319.97;4984988;28;106116;-71
2021/07/14 05:18:13;;;;;;;25.52;20.83;;;;;;;23.09;76.36;99312.63;4984606;28;106235;-71
2021/07/14 05:20:40;;;;;;;20.77;18.58;;;;;;;23.17;76.10;99312.09;4983997;28;107200;-70
2021/07/14 05:23:06;;;;;;;23.50;19.25;;;;;;;23.25;76.03;99311.53;4983938;28;106112;-69
2021/07/14 05:25:31;;;;;;;21.05;15.70;;;;;;;23.40;76.12;99310.66;4984927;28;105981;-68
2021/07/14 05:27:57;;;;;;;23.42;15.68;;;;;;;23.56;75.49;99314.13;4983767;28;106116;-67
2021/07/14 05:30:22;;;;;;;19.90;15.23;;;;;;;23.69;74.96;99318.16;4983460;28;107712;-70
2021/07/14 05:32:47;;;;;;;17.42;14.50;;;;;;;23.84;74.85;99330.88;4983970;28;105838;-67
2021/07/14 05:35:13;;;;;;;21.27;14.32;;;;;;;23.97;74.42;99315.88;4984807;28;105847;-68
2021/07/14 05:37:38;;;;;;;22.23;13.88;;;;;;;24.10;73.52;99314.47;4984188;28;105765;-68
2021/07/14 05:40:05;;;;;;;15.60;12.40;;;;;;;24.22;73.24;99312.19;4983826;28;105749;-66
2021/07/14 05:42:30;;;;;;;19.90;12.82;;;;;;;24.41;73.03;99323.22;4983897;28;106132;-67
2021/07/14 05:44:56;;;;;;;23.75;13.80;;;;;;;24.65;72.22;99336.94;4984994;28;106119;-66
2021/07/14 05:47:21;;;;;;;22.00;13.38;;;;;;;24.81;71.42;99334.09;4983854;28;106177;-66
2021/07/14 05:49:46;;;;;;;20.52;13.27;;;;;;;24.95;70.56;99337.78;4983845;28;107071;-68
2021/07/14 05:52:14;;;;;;;21.92;12.73;;;;;;;25.12;70.08;99350.16;4983322;28;106300;-69
2021/07/14 05:54:40;;;;;;;27.33;13.98;;;;;;;25.26;69.45;99359.28;4983849;28;106366;-67
2021/07/14 05:57:05;;;;;;;19.08;11.88;;;;;;;25.34;68.18;99361.41;4983898;28;106537;-69
2021/07/14 05:59:30;;;;;;;17.00;11.30;;;;;;;25.38;67.98;99366.28;4983007;28;106129;-69
2021/07/14 06:01:56;;;;;;;18.75;10.75;;;;;;;25.39;67.18;99359.72;4983360;28;105890;-69
2021/07/14 06:04:21;;;;;;;14.95;11.15;;;;;;;25.40;67.01;99366.81;4975741;28;106311;-69
2021/07/14 06:06:46;;;;;;;17.60;10.48;;;;;;;25.42;66.05;99372.78;4970604;28;106334;-73
2021/07/14 06:09:12;;;;;;;14.52;9.77;;;;;;;25.50;66.00;99372.94;4968615;28;107398;-68
2021/07/14 06:11:37;;;;;;;21.00;9.63;;;;;;;25.59;65.80;99389.50;4970424;28;107896;-69
2021/07/14 06:14:03;;;;;;;19.15;9.93;;;;;;;25.63;65.15;99384.25;4971748;28;106161;-71
2021/07/14 06:16:29;;;;;;;17.10;9.25;;;;;;;25.57;64.74;99396.34;4970763;28;106272;-71
2021/07/14 06:18:54;;;;;;;19.30;8.82;;;;;;;25.47;63.96;99397.28;4970601;28;107273;-71
2021/07/14 06:21:21;;;;;;;19.88;8.90;;;;;;;25.38;63.69;99402.53;4970626;28;106109;-70
2021/07/14 06:23:47;;;;;;;13.63;8.10;;;;;;;25.31;63.32;99423.81;4970794;28;105984;-68
2021/07/14 06:26:12;;;;;;;13.77;8.10;;;;;;;25.24;63.27;99426.88;4970808;28;106276;-69
2021/07/14 06:28:37;;;;;;;18.77;8.02;;;;;;;25.27;63.60;99425.50;4970376;28;106529;-70
2021/07/14 06:31:03;;;;;;;13.20;8.95;;;;;;;25.33;63.29;99408.03;4970472;28;108999;-71
2021/07/14 06:33:29;;;;;;;16.67;9.38;;;;;;;25.33;62.98;99405.31;4971336;28;106113;-72
2021/07/14 06:35:55;;;;;;;19.77;9.15;;;;;;;25.32;63.43;99411.84;4970851;28;106163;-72
2021/07/14 06:38:20;;;;;;;12.27;7.35;;;;;;;25.33;63.37;99413.50;4970485;28;105949;-71
2021/07/14 06:40:46;;;;;;;12.35;7.65;;;;;;;25.34;63.33;99426.84;4970245;28;106583;-70
2021/07/14 06:43:16;;;;;;;13.80;6.57;;;;;;;25.33;62.99;99452.47;4971224;28;106232;-72
2021/07/14 06:45:43;;;;;;;17.40;6.70;;;;;;;25.16;62.05;99485.56;4970860;28;106351;-71
2021/07/14 06:48:09;;;;;;;15.77;6.82;;;;;;;25.00;61.94;99514.81;4970375;28;106699;-68
2021/07/14 06:50:34;;;;;;;14.13;6.80;;;;;;;24.95;62.24;99522.22;4968203;28;107904;-72
2021/07/14 06:53:03;;;;;;;14.85;6.93;;;;;;;24.91;62.36;99541.03;4970937;28;106196;-72
2021/07/14 06:55:29;;;;;;;12.40;5.93;;;;;;;24.80;61.80;99550.38;4969274;28;106195;-73
2021/07/14 06:57:55;;;;;;;13.85;6.10;;;;;;;24.73;62.13;99574.34;4969537;28;106575;-71
2021/07/14 07:00:20;;;;;;;18.10;5.63;;;;;;;24.73;62.34;99587.97;4969603;28;105827;-68
2021/07/14 07:02:46;;;;;;;14.02;6.13;;;;;;;24.78;62.54;99588.78;4970498;28;106133;-68
2021/07/14 07:05:12;;;;;;;11.43;4.95;;;;;;;24.89;61.92;99565.03;4968239;28;106195;-72
2021/07/14 07:07:37;;;;;;;12.30;5.38;;;;;;;24.93;61.80;99563.38;4969419;28;106375;-73
2021/07/14 07:10:04;;;;;;;9.70;5.13;;;;;;;25.05;62.07;99549.38;4969769;28;105808;-75
2021/07/14 07:12:29;;;;;;;13.32;4.82;;;;;;;25.31;61.81;99550.03;4969705;28;105905;-70
2021/07/14 07:14:55;;;;;;;8.52;3.42;;;;;;;25.44;60.67;99534.16;4969241;28;106012;-70
2021/07/14 07:17:20;;;;;;;9.50;2.85;;;;;;;25.50;60.46;99533.00;4968684;28;106468;-73
2021/07/14 07:19:45;;;;;;;6.88;2.95;;;;;;;25.57;60.25;99543.59;4969185;28;106192;-69
2021/07/14 07:22:11;;;;;;;9.18;2.65;;;;;;;25.77;59.65;99532.50;4969871;28;105997;-72
2021/07/14 07:24:36;;;;;;;7.10;2.72;;;;;;;25.78;58.37;99541.47;4969711;28;105986;-71
2021/07/14 07:27:04;;;;;;;6.97;2.38;;;;;;;25.74;58.23;99527.63;4969097;28;105985;-76
2021/07/14 07:29:30;;;;;;;7.82;2.60;;;;;;;25.81;58.34;99530.00;4969102;28;105857;-70
2021/07/14 07:31:55;;;;;;;9.35;2.58;;;;;;;25.87;57.97;99517.94;4969824;28;105969;-70
2021/07/14 07:34:22;;;;;;;6.20;2.72;;;;;;;26.10;57.98;99521.81;4969648;28;106113;-76
2021/07/14 07:36:48;;;;;;;7.07;2.50;;;;;;;26.50;58.09;99527.06;4966128;28;105918;-70
2021/07/14 07:39:14;;;;;;;5.82;2.58;;;;;;;26.92;57.25;99519.19;4947832;28;107964;-70
2021/07/14 07:41:41;;;;;;;12.50;2.45;;;;;;;27.29;56.42;99517.50;4948947;28;106393;-68
2021/07/14 07:44:06;;;;;;;6.57;2.30;;;;;;;27.51;55.48;99511.44;4949711;28;106245;-73
2021/07/14 07:46:33;;;;;;;6.57;2.40;;;;;;;27.64;55.05;99516.13;4949437;28;105920;-72
2021/07/14 07:48:58;;;;;;;8.73;3.13;;;;;;;27.50;53.59;99527.03;4949125;28;105936;-74
2021/07/14 07:51:24;;;;;;;10.85;2.47;;;;;;;27.27;54.08;99538.84;4948310;28;105983;-76
2021/07/14 07:53:49;;;;;;;5.13;2.35;;;;;;;26.97;53.73;99547.25;4949209;28;106229;-75
2021/07/14 07:56:14;;;;;;;13.95;3.05;;;;;;;26.60;54.35;99567.09;4949656;28;106037;-71
2021/07/14 07:58:43;;;;;;;4.55;2.30;;;;;;;26.44;55.08;99558.28;4954549;28;105910;-72
2021/07/14 08:01:09;;;;;;;7.30;1.77;;;;;;;26.47;55.61;99549.50;4968727;28;106438;-67
2021/07/14 08:03:34;;;;;;;6.07;1.80;;;;;;;26.60;55.03;99545.25;4969242;28;106256;-67
2021/07/14 08:06:00;;;;;;;2.35;1.40;;;;;;;26.56;53.69;99538.75;4969229;28;107851;-74
2021/07/14 08:08:25;;;;;;;4.18;1.55;;;;;;;26.36;53.09;99559.75;4969201;28;106329;-71
2021/07/14 08:10:53;;;;;;;3.92;1.50;;;;;;;26.26;53.10;99570.75;4970126;28;106140;-71
2021/07/14 08:13:18;;;;;;;4.40;1.40;;;;;;;26.06;52.88;99569.09;4969174;28;106356;-72
2021/07/14 08:15:45;;;;;;;4.03;1.50;;;;;;;26.07;53.38;99571.53;4966651;28;108802;-72
2021/07/14 08:18:10;;;;;;;7.93;1.50;;;;;;;26.26;53.46;99568.03;4968810;28;106028;-74
2021/07/14 08:20:35;;;;;;;4.63;1.77;;;;;;;26.47;53.20;99574.09;4969481;28;106088;-76
2021/07/14 08:23:01;;;;;;;4.25;1.60;;;;;;;26.57;52.80;99581.34;4968945;28;106132;-74
2021/07/14 08:25:26;;;;;;;2.60;1.20;;;;;;;26.55;52.29;99581.63;4968348;28;105819;-71
2021/07/14 08:27:52;;;;;;;4.07;0.82;;;;;;;26.32;50.82;99586.81;4967968;28;106254;-70
2021/07/14 08:30:18;;;;;;;3.17;0.70;;;;;;;26.27;50.88;99578.69;4969315;28;106049;-72
2021/07/14 08:32:43;;;;;;;1.75;0.88;;;;;;;26.34;50.55;99565.50;4968717;28;106163;-72
2021/07/14 08:35:10;;;;;;;6.05;0.90;;;;;;;26.33;50.07;99566.59;4968019;28;106659;-71
2021/07/14 08:37:35;;;;;;;1.02;0.77;;;;;;;26.35;50.18;99569.03;4968233;28;106004;-73
2021/07/14 08:40:02;;;;;;;4.53;0.95;;;;;;;26.31;49.50;99590.66;4969094;28;106403;-71
2021/07/14 08:42:28;;;;;;;3.38;1.08;;;;;;;26.15;49.62;99592.72;4968992;28;105995;-71
2021/07/14 08:44:54;;;;;;;4.93;1.10;;;;;;;25.97;49.45;99587.97;4968611;28;106055;-73
2021/07/14 08:47:20;;;;;;;7.65;1.17;;;;;;;25.88;49.92;99584.25;4968395;28;106849;-68
2021/07/14 08:49:49;;;;;;;7.50;1.30;;;;;;;25.97;50.28;99586.06;4969073;28;105998;-72
2021/07/14 08:52:17;;;;;;;6.78;1.63;;;;;;;26.21;50.14;99612.59;4968020;28;106306;-71
2021/07/14 08:54:43;;;;;;;5.35;1.35;;;;;;;26.26;49.60;99634.38;4968025;28;105932;-70
2021/07/14 08:57:10;;;;;;;2.38;1.52;;;;;;;26.08;49.76;99640.56;4967843;28;106226;-71
2021/07/14 08:59:37;;;;;;;8.30;1.20;;;;;;;25.84;50.19;99657.66;4968523;28;105921;-70
2021/07/14 09:02:03;;;;;;;5.95;1.40;;;;;;;25.55;50.48;99674.78;4967861;28;106467;-70
2021/07/14 09:04:28;;;;;;;6.28;1.38;;;;;;;25.37;51.12;99687.16;4967546;28;105881;-68
2021/07/14 09:06:54;;;;;;;3.08;1.20;;;;;;;25.11;51.51;99689.16;4967149;28;110955;-69
2021/07/14 09:09:19;;;;;;;2.78;1.05;;;;;;;24.94;52.20;99684.06;4968472;28;106053;-69
2021/07/14 09:11:49;;;;;;;2.72;0.88;;;;;;;24.73;52.59;99696.91;4967384;28;105975;-70
2021/07/14 09:14:34;;;;;;;3.08;1.15;;;;;;;24.53;53.16;99687.66;4947965;28;105872;-70
2021/07/14 09:17:01;;;;;;;2.67;1.00;;;;;;;24.45;53.81;99677.34;4947646;28;106084;-70
2021/07/14 09:19:30;;;;;;;8.68;1.10;;;;;;;24.38;53.91;99666.72;4949006;28;105912;-67
2021/07/14 09:21:57;;;;;;;4.50;1.17;;;;;;;24.29;54.03;99652.88;4948204;28;105866;-70
2021/07/14 09:24:34;;;;;;;7.07;1.10;;;;;;;24.29;54.24;99661.03;4946949;28;106057;-67
2021/07/14 09:27:14;;;;;;;3.58;1.00;;;;;;;24.28;53.91;99686.63;4948128;28;106214;-72
2021/07/14 09:29:40;;;;;;;3.08;0.82;;;;;;;24.16;54.34;99680.66;4963413;28;106152;-71
2021/07/14 09:32:08;;;;;;;7.68;1.30;;;;;;;24.18;54.52;99702.97;4965907;28;106340;-70
2021/07/14 09:34:34;;;;;;;4.75;1.00;;;;;;;24.32;54.67;99711.41;4967330;28;105854;-72
2021/07/14 09:37:02;;;;;;;11.98;2.75;;;;;;;24.56;54.90;99705.38;4967342;28;105858;-72
2021/07/14 09:39:34;;;;;;;16.65;2.10;;;;;;;24.58;54.38;99704.00;4969116;28;106058;-72
2021/07/14 09:42:12;;;;;;;3.80;1.08;;;;;;;24.41;54.60;99769.66;4970589;28;106188;-71
2021/07/14 09:44:48;;;;;;;3.25;0.90;;;;;;;24.02;55.19;99842.78;4970507;28;105985;-71
2021/07/14 09:47:19;;;;;;;9.38;1.00;;;;;;;23.63;55.68;99803.22;4952934;28;108210;-73
2021/07/14 09:49:49;;;;;;;5.28;1.85;;;;;;;23.37;56.90;99769.69;4970837;28;105893;-71
2021/07/14 09:52:19;;;;;;;;;;;;;;;23.18;56.96;99740.25;4970697;28;106240;-71
2021/07/14 09:54:44;;;;;;;6.27;1.30;;;;;;;23.14;57.86;99747.28;4970921;28;106008;-68
2021/07/14 09:57:18;;;;;;;5.78;1.58;;;;;;;23.08;58.19;99740.97;4970375;28;106001;-75
2021/07/14 09:59:44;;;;;;;6.68;1.95;;;;;;;23.07;58.68;99746.69;4970983;28;105989;-75
2021/07/14 10:02:14;;;;;;;5.55;1.10;;;;;;;22.93;59.35;99773.50;4971108;28;106108;-76
2021/07/14 10:04:40;;;;;;;4.25;1.65;;;;;;;22.91;60.05;99749.31;4970720;28;105910;-75
2021/07/14 10:07:12;;;;;;;4.47;1.70;;;;;;;23.12;60.70;99738.56;4969900;28;106248;-68
2021/07/14 10:09:38;;;;;;;6.38;1.42;;;;;;;23.41;60.86;99754.47;4961247;28;105968;-67
2021/07/14 10:12:26;;;;;;;2.53;0.98;;;;;;;23.77;60.70;99740.97;4953249;28;105925;-73
2021/07/14 10:14:52;;;;;;;6.18;3.83;;;;;;;24.19;60.70;99726.34;4970374;28;106067;-70
2021/07/14 10:17:37;;;;;;;13.27;7.88;;;;;;;24.61;60.63;99719.81;4969459;28;106135;-74
2021/07/14 10:20:24;;;;;;;14.68;6.65;;;;;;;24.98;60.07;99706.91;4970776;28;106036;-75
2021/07/14 10:22:55;;;;;;;3.95;1.30;;;;;;;25.12;59.59;99731.66;4969772;28;106208;-75
2021/07/14 10:25:21;;;;;;;4.75;1.70;;;;;;;25.02;59.04;99757.03;4969798;28;106152;-77
2021/07/14 10:27:47;;;;;;;5.03;1.40;;;;;;;24.94;59.22;99757.59;4970028;28;105897;-75
2021/07/14 10:30:15;;;;;;;6.97;1.90;;;;;;;24.83;59.05;99775.88;4958972;28;106877;-74
2021/07/14 10:32:41;;;;;;;3.70;1.45;;;;;;;24.68;59.09;99763.09;4950535;28;106322;-75
2021/07/14 10:35:10;;;;;;;5.93;1.70;;;;;;;24.71;59.69;99764.47;4950699;28;106752;-74
2021/07/14 10:37:38;;;;;;;4.40;1.60;;;;;;;24.85;60.10;99741.03;4950463;28;106013;-73
2021/07/14 10:40:06;;;;;;;3.78;1.20;;;;;;;25.14;59.92;99719.38;4951120;28;106006;-74
2021/07/14 10:42:33;;;;;;;5.00;1.60;;;;;;;25.38;59.29;99717.97;4950462;28;105883;-74
2021/07/14 10:45:00;;;;;;;5.75;1.85;;;;;;;25.60;59.01;99710.22;4950383;28;106871;-74
2021/07/14 10:47:26;;;;;;;4.78;1.50;;;;;;;25.99;58.62;99686.72;4951868;28;106081;-74
2021/07/14 10:49:52;;;;;;;6.30;1.58;;;;;;;26.22;58.09;99670.72;4967671;28;106030;-74
2021/07/14 10:52:18;;;;;;;4.57;1.40;;;;;;;26.39;57.77;99662.09;4969493;28;106223;-76
2021/07/14 10:54:44;;;;;;;8.88;2.72;;;;;;;26.67;57.19;99671.38;4969764;28;106739;-76
2021/07/14 10:57:10;;;;;;;13.30;5.97;;;;;;;26.75;57.01;99643.44;4968221;28;106094;-72
2021/07/14 10:59:36;;;;;;;7.10;3.40;;;;;;;26.90;56.68;99639.72;4970855;28;106000;-71
2021/07/14 11:02:02;;;;;;;4.50;1.38;;;;;;;27.01;56.21;99623.97;4969961;28;105930;-71
2021/07/14 11:04:27;;;;;;;3.17;1.42;;;;;;;27.21;56.52;99614.69;4969975;28;106662;-70
2021/07/14 11:06:54;;;;;;;4.15;1.42;;;;;;;27.58;56.34;99604.84;4967908;28;106189;-70
2021/07/14 11:09:46;;;;;;;5.43;1.20;;;;;;;28.02;55.93;99609.06;4969654;28;106273;-68
2021/07/14 11:12:14;;;;;;;7.18;1.67;;;;;;;28.32;54.99;99622.50;4967733;28;106054;-70
2021/07/14 11:14:48;;;;;;;5.95;1.50;;;;;;;28.46;53.90;99633.44;4966701;28;106045;-71
2021/07/14 11:17:15;;;;;;;4.38;1.15;;;;;;;28.53;53.50;99609.22;4968638;28;106536;-70
2021/07/14 11:19:52;;;;;;;5.75;1.38;;;;;;;28.49;53.10;99600.78;4970285;28;105878;-70
2021/07/14 11:22:36;;;;;;;5.97;1.50;;;;;;;28.27;52.49;99598.75;4969401;28;105953;-70
2021/07/14 11:25:04;;;;;;;5.97;1.00;;;;;;;28.21;52.33;99583.53;4968953;28;105945;-70
2021/07/14 11:27:29;;;;;;;9.38;1.90;;;;;;;28.34;51.72;99588.22;4968658;28;106563;-70
2021/07/14 11:30:00;;;;;;;8.10;1.77;;;;;;;28.51;51.61;99587.63;4969589;28;105973;-69
2021/07/14 11:32:34;;;;;;;5.68;1.33;;;;;;;28.56;50.84;99599.59;4969364;28;106141;-77
2021/07/14 11:35:07;;;;;;;10.45;2.00;;;;;;;28.40;50.13;99610.81;4968061;28;107224;-76
2021/07/14 11:37:38;;;;;;;7.75;1.90;;;;;;;28.05;50.59;99610.41;4968465;28;105928;-74
2021/07/14 11:40:22;;;;;;;3.17;1.30;;;;;;;27.87;50.37;99620.25;4969705;28;106053;-74
2021/07/14 11:42:47;;;;;;;4.00;1.20;;;;;;;27.83;50.89;99635.63;4968884;28;106304;-75
2021/07/14 11:45:13;;;;;;;6.57;1.40;;;;;;;27.64;50.46;99638.41;4968353;28;106403;-77
2021/07/14 11:47:39;;;;;;;5.25;1.40;;;;;;;27.47;51.11;99647.16;4968894;28;105978;-68
2021/07/14 11:50:05;;;;;;;4.85;1.73;;;;;;;27.30;50.97;99669.53;4969834;28;106101;-69
2021/07/14 11:52:50;;;;;;;3.80;1.50;;;;;;;26.87;51.52;99686.72;4968549;28;106163;-70
2021/07/14 11:55:22;;;;;;;6.95;1.75;;;;;;;26.51;51.77;99698.84;4966837;28;106031;-70
2021/07/14 11:57:47;;;;;;;4.75;1.30;;;;;;;26.23;52.74;99688.75;4968762;28;105858;-69
2021/07/14 12:00:13;;;;;;;4.70;1.48;;;;;;;26.10;53.01;99679.31;4969340;28;105966;-68
2021/07/14 12:02:39;;;;;;;7.43;2.20;;;;;;;26.06;53.63;99656.41;4968256;28;106113;-68
2021/07/14 12:05:07;;;;;;;6.82;1.58;;;;;;;26.06;53.62;99632.66;4968327;28;106768;-69
2021/07/14 12:07:41;;;;;;;7.20;1.75;;;;;;;26.05;53.50;99654.78;4968783;28;106417;-72
2021/07/14 12:10:17;;;;;;;3.38;1.30;;;;;;;26.07;53.58;99623.38;4969147;28;105810;-68
2021/07/14 12:12:47;;;;;;;7.20;1.48;;;;;;;26.21;53.52;99628.16;4968303;28;106289;-66
2021/07/14 12:15:12;;;;;;;4.57;1.50;;;;;;;26.29;53.44;99587.38;4968164;28;106045;-70
2021/07/14 12:17:37;;;;;;;4.28;1.27;;;;;;;26.62;53.12;99606.66;4968475;28;106880;-72
2021/07/14 12:20:03;;;;;;;6.25;1.48;;;;;;;27.09;53.14;99570.56;4969516;28;106517;-72
2021/07/14 12:22:31;;;;;;;4.20;1.60;;;;;;;27.59;52.36;99579.13;4968579;28;106434;-74
2021/07/14 12:25:05;;;;;;;6.53;1.83;;;;;;;28.07;51.74;99549.88;4967129;28;106622;-69
2021/07/14 12:27:35;;;;;;;6.40;1.50;;;;;;;28.32;49.96;99571.28;4968205;28;105846;-69
2021/07/14 12:30:12;;;;;;;4.80;1.80;;;;;;;28.42;50.04;99542.88;4968356;28;106083;-68
2021/07/14 12:32:39;;;;;;;7.88;2.28;;;;;;;28.65;49.32;99565.72;4967809;28;106367;-69
2021/07/14 12:35:11;;;;;;;7.93;1.92;;;;;;;28.68;48.23;99548.66;4950518;28;105926;-70
2021/07/14 12:37:43;;;;;;;11.73;2.05;;;;;;;28.87;47.95;99554.00;4959003;28;106110;-73
2021/07/14 12:40:10;;;;;;;9.02;1.92;;;;;;;28.95;47.02;99546.16;4968898;28;106305;-69
2021/07/14 12:42:35;;;;;;;6.05;1.58;;;;;;;28.95;46.58;99563.44;4953143;28;106016;-69
2021/07/14 12:45:01;;;;;;;6.78;1.65;;;;;;;28.67;45.90;99568.16;4948817;28;106141;-70
2021/07/14 12:47:26;;;;;;;5.40;1.63;;;;;;;28.31;46.29;99583.34;4952923;28;105984;-68
2021/07/14 12:49:53;;;;;;;5.78;1.80;;;;;;;28.11;47.00;99559.09;4968894;28;106113;-69
2021/07/14 12:52:21;;;;;;;8.60;2.67;;;;;;;28.20;47.21;99566.31;4962060;28;106402;-69
2021/07/14 12:54:52;;;;;;;4.07;1.70;;;;;;;28.27;47.16;99554.13;4956401;28;106813;-71
2021/07/14 12:57:18;;;;;;;5.95;1.70;;;;;;;28.43;46.78;99538.19;4967633;28;106184;-68
2021/07/14 13:00:07;;;;;;;5.07;1.38;;;;;;;28.35;46.80;99510.41;4968743;28;106518;-66
2021/07/14 13:02:56;;;;;;;9.13;1.70;;;;;;;28.22;47.01;99507.69;4967439;28;106035;-70
2021/07/14 13:05:24;;;;;;;13.55;2.35;;;;;;;28.13;46.89;99521.25;4967786;28;106453;-73
2021/07/14 13:08:11;;;;;;;9.30;1.70;;;;;;;28.00;47.44;99529.16;4967682;28;105791;-71
2021/07/14 13:10:37;;;;;;;8.90;1.60;;;;;;;27.77;47.39;99528.19;4969177;28;105917;-69
2021/07/14 13:13:03;;;;;;;6.50;1.85;;;;;;;27.62;48.14;99531.22;4964166;28;106165;-67
2021/07/14 13:15:30;;;;;;;7.15;1.60;;;;;;;27.61;48.45;99526.84;4970737;28;105921;-68
2021/07/14 13:18:15;;;;;;;6.53;2.00;;;;;;;27.67;48.20;99531.94;4970744;28;106058;-70
2021/07/14 13:20:48;;;;;;;6.32;1.73;;;;;;;27.86;48.03;99544.75;4972654;28;106055;-69
2021/07/14 13:23:19;;;;;;;6.50;1.60;;;;;;;28.08;47.75;99546.03;4970052;28;106175;-69
2021/07/14 13:25:52;;;;;;;4.55;1.50;;;;;;;28.13;47.51;99538.53;4971227;28;107187;-66
2021/07/14 13:28:32;;;;;;;7.50;1.80;;;;;;;28.20;47.62;99535.38;4971033;28;106415;-67
2021/07/14 13:30:58;;;;;;;;;;;;;;;28.24;47.30;99541.88;4972457;28;105870;-68
2021/07/14 13:33:40;;;;;;;10.48;1.70;;;;;;;28.26;47.24;99539.63;4971099;28;106232;-70
2021/07/14 13:36:07;;;;;;;6.50;2.05;;;;;;;28.30;47.21;99537.09;4971330;28;105950;-66
2021/07/14 13:38:38;;;;;;;7.97;1.40;;;;;;;28.17;47.16;99545.00;4971106;28;106458;-66
2021/07/14 13:41:17;;;;;;;6.63;1.48;;;;;;;27.95;47.21;99548.38;4971673;28;106244;-69
2021/07/14 13:43:59;;;;;;;8.88;1.52;;;;;;;27.88;47.56;99569.06;4970563;28;106339;-68
2021/07/14 13:46:42;;;;;;;9.48;1.55;;;;;;;27.67;47.89;99600.31;4969688;28;105972;-68
2021/07/14 13:49:11;;;;;;;6.07;1.83;;;;;;;27.28;47.89;99603.38;4970768;28;106109;-68
2021/07/14 13:51:41;;;;;;;5.78;1.70;;;;;;;26.88;48.68;99620.06;4971372;28;105978;-68
2021/07/14 13:54:19;;;;;;;7.40;2.00;;;;;;;26.46;49.32;99640.72;4971094;28;105960;-73
2021/07/14 13:56:54;;;;;;;6.95;1.65;;;;;;;26.10;50.11;99638.38;4970885;28;105993;-70
2021/07/14 13:59:24;;;;;;;6.60;1.98;;;;;;;25.85;51.15;99632.00;4969388;28;106969;-67
2021/07/14 14:01:53;;;;;;;6.70;1.77;;;;;;;25.61;51.84;99621.81;4971877;28;106565;-68
2021/07/14 14:04:19;;;;;;;6.35;1.95;;;;;;;25.45;52.59;99601.22;4971219;28;106181;-66
2021/07/14 14:06:48;;;;;;;5.85;1.67;;;;;;;25.26;53.27;99560.97;4970647;28;106143;-71
2021/07/14 14:09:20;;;;;;;8.93;1.93;;;;;;;25.25;54.09;99551.16;4970711;28;106805;-65
2021/07/14 14:11:47;;;;;;;4.40;1.48;;;;;;;25.26;54.40;99533.72;4971226;28;106100;-66
2021/07/14 14:17:52;;;;;;;9.25;2.35;;;;;;;25.29;54.45;99522.25;5007378;28;105809;-66
